createdAt,value
2023-04-25T00:00:37.885Z,0.68
2023-04-25T00:03:42.394Z,0.70
2023-04-25T00:06:46.026Z,1.15
2023-04-25T00:09:49.168Z,1.10
2023-04-25T00:12:52.626Z,0.85
2023-04-25T00:15:55.635Z,0.90
2023-04-25T00:19:00.355Z,1.25
2023-04-25T00:22:03.438Z,1.00
2023-04-25T00:25:07.532Z,1.30
2023-04-25T00:28:10.438Z,1.50
2023-04-25T00:31:13.525Z,1.48
2023-04-25T00:34:18.126Z,1.58
2023-04-25T00:37:21.636Z,1.30
2023-04-25T00:40:24.790Z,1.55
2023-04-25T00:43:29.244Z,1.50
2023-04-25T00:46:33.068Z,1.10
2023-04-25T00:49:37.387Z,1.50
2023-04-25T00:52:42.039Z,1.40
2023-04-25T00:55:45.198Z,1.27
2023-04-25T00:58:48.180Z,1.50
2023-04-25T01:01:51.784Z,1.13
2023-04-25T01:04:56.331Z,1.50
2023-04-25T01:07:59.268Z,1.35
2023-04-25T01:11:02.491Z,1.10
2023-04-25T01:14:05.463Z,0.90
2023-04-25T01:17:09.953Z,1.50
2023-04-25T01:20:36.239Z,1.25
2023-04-25T01:23:42.548Z,1.42
2023-04-25T01:26:50.829Z,1.15
2023-04-25T01:29:55.768Z,1.02
2023-04-25T01:33:00.492Z,1.30
2023-04-25T01:36:03.927Z,1.45
2023-04-25T01:39:09.347Z,1.37
2023-04-25T01:42:12.655Z,1.13
2023-04-25T01:45:16.924Z,1.10
2023-04-25T01:48:20.470Z,1.73
2023-04-25T01:51:23.553Z,1.20
2023-04-25T01:54:27.902Z,1.70
2023-04-25T01:57:31.395Z,1.02
2023-04-25T02:00:34.370Z,1.10
2023-04-25T02:03:39.013Z,1.40
2023-04-25T02:06:42.132Z,1.60
2023-04-25T02:09:46.497Z,1.35
2023-04-25T02:12:49.439Z,1.60
2023-04-25T02:15:52.779Z,1.75
2023-04-25T02:18:55.754Z,1.63
2023-04-25T02:21:59.307Z,1.70
2023-04-25T02:25:05.559Z,1.50
2023-04-25T02:28:08.551Z,1.60
2023-04-25T02:31:11.608Z,1.65
2023-04-25T02:34:14.647Z,2.00
2023-04-25T02:37:17.606Z,2.00
2023-04-25T02:40:22.132Z,2.15
2023-04-25T02:43:25.130Z,1.60
2023-04-25T02:46:38.237Z,1.73
2023-04-25T02:49:42.357Z,2.22
2023-04-25T02:52:46.676Z,2.15
2023-04-25T02:55:50.997Z,2.40
2023-04-25T02:58:54.032Z,2.20
2023-04-25T03:01:57.044Z,2.20
2023-04-25T03:05:00.057Z,2.72
2023-04-25T03:08:03.861Z,2.45
2023-04-25T03:11:08.209Z,2.70
2023-04-25T03:14:11.268Z,2.58
2023-04-25T03:17:14.348Z,2.47
2023-04-25T03:20:17.299Z,2.88
2023-04-25T03:23:20.385Z,2.53
2023-04-25T03:26:24.901Z,2.67
2023-04-25T03:29:28.943Z,2.78
2023-04-25T03:32:32.213Z,2.65
2023-04-25T03:35:35.388Z,2.83
2023-04-25T03:38:38.409Z,2.75
2023-04-25T03:41:42.735Z,2.67
2023-04-25T03:44:46.029Z,2.70
2023-04-25T03:47:49.156Z,2.50
2023-04-25T03:50:52.483Z,2.53
2023-04-25T03:53:55.407Z,2.63
2023-04-25T03:57:00.039Z,2.42
2023-04-25T04:00:04.412Z,2.75
2023-04-25T04:03:07.751Z,2.92
2023-04-25T04:06:11.636Z,2.60
2023-04-25T04:09:14.930Z,2.65
2023-04-25T04:12:19.365Z,2.50
2023-04-25T04:15:22.682Z,2.65
2023-04-25T04:18:26.211Z,2.03
2023-04-25T04:21:29.205Z,2.63
2023-04-25T04:24:32.234Z,3.63
2023-04-25T04:27:37.177Z,2.22
2023-04-25T04:30:40.477Z,2.95
2023-04-25T04:33:43.457Z,2.30
2023-04-25T04:36:47.150Z,2.55
2023-04-25T04:39:51.396Z,3.25
2023-04-25T04:46:02.150Z,2.45
2023-04-25T04:49:06.455Z,2.83
2023-04-25T04:52:09.482Z,2.63
2023-04-25T04:55:12.533Z,2.92
2023-04-25T04:58:18.751Z,3.10
2023-04-25T05:01:23.233Z,2.90
2023-04-25T05:04:27.285Z,2.28
2023-04-25T05:07:30.417Z,2.95
2023-04-25T05:10:34.136Z,2.95
2023-04-25T05:13:58.989Z,3.80
2023-04-25T05:17:02.307Z,2.85
2023-04-25T05:20:07.138Z,2.87
2023-04-25T05:23:10.107Z,3.58
2023-04-25T05:26:14.785Z,2.90
2023-04-25T05:29:19.448Z,3.47
2023-04-25T05:32:22.941Z,2.92
2023-04-25T05:35:26.030Z,2.40
2023-04-25T05:38:29.025Z,3.42
2023-04-25T05:41:32.427Z,3.13
2023-04-25T05:44:36.806Z,2.40
2023-04-25T05:47:39.792Z,2.38
2023-04-25T05:50:42.793Z,2.78
2023-04-25T05:53:46.227Z,2.88
2023-04-25T05:56:49.523Z,2.40
2023-04-25T05:59:54.279Z,3.17
2023-04-25T06:02:57.488Z,3.30
2023-04-25T06:06:00.732Z,2.77
2023-04-25T06:09:04.238Z,3.58
2023-04-25T06:12:07.976Z,3.40
2023-04-25T06:15:26.654Z,2.83
2023-04-25T06:18:30.851Z,4.25
2023-04-25T06:21:33.839Z,3.53
2023-04-25T06:24:37.117Z,3.40
2023-04-25T06:27:40.129Z,3.10
2023-04-25T06:30:44.419Z,3.90
2023-04-25T06:36:52.678Z,4.20
2023-04-25T06:39:56.194Z,3.40
2023-04-25T06:42:59.146Z,3.80
2023-04-25T06:46:03.775Z,3.40
2023-04-25T06:49:06.983Z,4.07
2023-04-25T06:52:11.597Z,4.47
2023-04-25T06:55:14.661Z,3.60
2023-04-25T06:58:17.929Z,3.75
2023-04-25T07:01:23.109Z,3.83
2023-04-25T07:04:26.917Z,3.72
2023-04-25T07:07:30.436Z,3.22
2023-04-25T07:10:33.452Z,4.33
2023-04-25T07:13:36.518Z,4.97
2023-04-25T07:16:41.589Z,4.25
2023-04-25T07:19:45.061Z,4.05
2023-04-25T07:22:48.072Z,3.53
2023-04-25T07:25:51.370Z,3.67
2023-04-25T07:28:55.587Z,3.47
2023-04-25T07:35:04.305Z,3.17
2023-04-25T07:38:08.894Z,3.72
2023-04-25T07:41:12.145Z,3.40
2023-04-25T07:44:15.706Z,3.70
2023-04-25T07:47:20.981Z,3.35
2023-04-25T07:50:24.871Z,3.47
2023-04-25T07:53:27.983Z,3.72
2023-04-25T07:56:35.883Z,4.68
2023-04-25T07:59:48.677Z,3.25
2023-04-25T08:02:53.234Z,3.20
2023-04-25T08:05:56.624Z,3.38
2023-04-25T08:08:59.910Z,3.10
2023-04-25T08:12:03.287Z,3.63
2023-04-25T08:15:07.485Z,2.90
2023-04-25T08:21:37.290Z,2.40
2023-04-25T08:24:40.211Z,3.10
2023-04-25T08:27:43.463Z,3.20
2023-04-25T08:30:46.506Z,3.22
2023-04-25T08:33:50.463Z,3.28
2023-04-25T08:36:54.991Z,3.35
2023-04-25T08:39:58.407Z,3.15
2023-04-25T08:43:04.160Z,2.73
2023-04-25T08:46:07.928Z,2.85
2023-04-25T08:49:11.078Z,3.03
2023-04-25T08:52:16.314Z,2.93
2023-04-25T08:55:20.112Z,2.47
2023-04-25T08:58:23.615Z,2.70
2023-04-25T09:01:27.443Z,2.67
2023-04-25T09:04:32.384Z,2.72
2023-04-25T09:07:37.133Z,2.67
2023-04-25T09:10:41.055Z,3.50
2023-04-25T09:13:44.173Z,2.55
2023-04-25T09:17:01.151Z,2.83
2023-04-25T09:20:09.223Z,2.63
2023-04-25T09:23:14.022Z,2.65
2023-04-25T09:26:19.143Z,3.25
2023-04-25T09:29:31.341Z,2.90
2023-04-25T09:32:34.454Z,2.55
2023-04-25T09:35:39.408Z,2.00
2023-04-25T09:38:45.700Z,2.92
2023-04-25T09:41:48.681Z,2.53
2023-04-25T09:44:54.303Z,2.25
2023-04-25T09:47:58.834Z,3.13
2023-04-25T09:51:10.106Z,2.85
2023-04-25T09:54:14.446Z,2.65
2023-04-25T09:57:19.208Z,2.20
2023-04-25T10:00:23.483Z,2.55
2023-04-25T10:06:31.889Z,2.13
2023-04-25T10:09:40.427Z,2.55
2023-04-25T10:12:45.095Z,2.63
2023-04-25T10:15:49.395Z,2.45
2023-04-25T10:18:52.824Z,2.65
2023-04-25T10:22:00.358Z,2.53
2023-04-25T10:25:05.642Z,2.53
2023-04-25T10:28:08.606Z,1.77
2023-04-25T10:31:12.048Z,1.90
2023-04-25T10:34:15.300Z,2.35
2023-04-25T10:37:18.257Z,2.72
2023-04-25T10:40:24.954Z,1.95
2023-04-25T10:43:49.715Z,1.70
2023-04-25T10:46:52.952Z,1.65
2023-04-25T10:49:56.057Z,1.60
2023-04-25T10:53:16.372Z,1.90
2023-04-25T10:56:22.208Z,1.80
2023-04-25T10:59:26.926Z,1.70
2023-04-25T11:02:30.431Z,2.20
2023-04-25T11:05:41.004Z,1.55
2023-04-25T11:08:52.152Z,1.67
2023-04-25T11:11:57.833Z,2.20
2023-04-25T11:15:02.663Z,1.92
2023-04-25T11:18:05.921Z,1.85
2023-04-25T11:21:08.961Z,1.97
2023-04-25T11:24:12.489Z,1.90
2023-04-25T11:27:16.923Z,2.05
2023-04-25T11:30:21.668Z,2.05
2023-04-25T11:33:29.019Z,2.17
2023-04-25T11:36:32.245Z,1.33
2023-04-25T11:39:35.727Z,1.98
2023-04-25T11:42:40.862Z,1.70
2023-04-25T11:45:48.682Z,2.10
2023-04-25T11:48:52.772Z,1.65
2023-04-25T11:54:58.893Z,2.00
2023-04-25T11:58:03.391Z,1.83
2023-04-25T12:01:06.966Z,1.95
2023-04-25T12:04:15.092Z,1.63
2023-04-25T12:07:19.933Z,1.50
2023-04-25T12:10:23.187Z,1.52
2023-04-25T12:13:29.246Z,1.10
2023-04-25T12:16:41.731Z,1.70
2023-04-25T12:19:45.482Z,1.98
2023-04-25T12:22:50.846Z,1.30
2023-04-25T12:25:53.816Z,1.60
2023-04-25T12:28:58.402Z,1.55
2023-04-25T12:32:02.625Z,1.45
2023-04-25T12:38:09.723Z,1.23
2023-04-25T12:41:12.808Z,1.73
2023-04-25T12:44:18.009Z,1.67
2023-04-25T12:47:21.221Z,2.03
2023-04-25T12:50:24.294Z,2.07
2023-04-25T12:53:27.416Z,2.67
2023-04-25T12:56:30.747Z,1.88
2023-04-25T12:59:35.625Z,2.03
2023-04-25T13:02:39.015Z,1.67
2023-04-25T13:05:42.490Z,1.60
2023-04-25T13:08:45.733Z,1.93
2023-04-25T13:11:48.702Z,1.40
2023-04-25T13:14:53.038Z,1.33
2023-04-25T13:17:56.942Z,1.30
2023-04-25T13:21:01.168Z,1.30
2023-04-25T13:24:04.596Z,1.60
2023-04-25T13:27:07.632Z,1.43
2023-04-25T13:30:12.824Z,1.50
2023-04-25T13:33:35.874Z,2.50
2023-04-25T13:36:38.836Z,1.80
2023-04-25T13:39:41.810Z,1.55
2023-04-25T13:42:46.349Z,1.92
2023-04-25T13:45:49.597Z,1.48
2023-04-25T13:48:59.770Z,2.15
2023-04-25T13:52:06.571Z,1.97
2023-04-25T13:55:10.458Z,2.37
2023-04-25T13:58:13.511Z,2.55
2023-04-25T14:01:16.928Z,2.08
2023-04-25T14:04:21.463Z,2.00
2023-04-25T14:07:24.641Z,1.90
2023-04-25T14:10:27.638Z,1.58
2023-04-25T14:13:30.645Z,1.60
2023-04-25T14:16:33.726Z,1.58
2023-04-25T14:19:39.520Z,1.98
2023-04-25T14:22:44.552Z,2.08
2023-04-25T14:25:47.551Z,1.67
2023-04-25T14:28:50.511Z,2.03
2023-04-25T14:31:54.730Z,1.90
2023-04-25T14:34:59.188Z,2.17
2023-04-25T14:38:02.216Z,1.55
2023-04-25T14:41:05.685Z,1.50
2023-04-25T14:44:09.281Z,2.27
2023-04-25T14:47:12.557Z,1.85
2023-04-25T14:50:16.870Z,1.00
2023-04-25T14:53:20.370Z,1.20
2023-04-25T14:56:23.387Z,1.50
2023-04-25T14:59:26.655Z,1.55
2023-04-25T15:02:32.768Z,1.43
2023-04-25T15:05:37.254Z,1.48
2023-04-25T15:08:40.359Z,1.30
2023-04-25T15:11:43.664Z,1.08
2023-04-25T15:14:46.754Z,1.13
2023-04-25T15:17:49.792Z,0.90
2023-04-25T15:20:54.974Z,1.17
2023-04-25T15:23:58.052Z,1.17
2023-04-25T15:27:01.052Z,1.58
2023-04-25T15:30:04.454Z,1.48
2023-04-25T15:33:07.496Z,1.23
2023-04-25T15:36:59.551Z,1.33
2023-04-25T15:40:09.633Z,1.52
2023-04-25T15:43:16.065Z,1.50
2023-04-25T15:46:19.452Z,1.85
2023-04-25T15:49:22.858Z,2.03
2023-04-25T15:52:27.716Z,2.07
2023-04-25T15:56:25.301Z,2.70
2023-04-25T15:59:28.444Z,1.92
2023-04-25T16:02:32.383Z,2.20
2023-04-25T16:05:35.927Z,1.70
2023-04-25T16:08:38.917Z,2.50
2023-04-25T16:11:43.837Z,2.00
2023-04-25T16:14:46.826Z,2.33
2023-04-25T16:17:49.826Z,1.65
2023-04-25T16:20:52.894Z,1.80
2023-04-25T16:23:55.911Z,2.58
2023-04-25T16:27:00.463Z,1.77
2023-04-25T16:30:03.703Z,2.28
2023-04-25T16:33:07.174Z,2.25
2023-04-25T16:36:12.876Z,2.33
2023-04-25T16:39:16.370Z,1.90
2023-04-25T16:42:20.713Z,2.20
2023-04-25T16:45:43.632Z,2.28
2023-04-25T16:48:48.239Z,2.47
2023-04-25T16:51:51.794Z,1.75
2023-04-25T16:54:54.736Z,1.70
2023-04-25T16:57:58.470Z,1.88
2023-04-25T17:01:02.918Z,2.05
2023-04-25T17:04:06.113Z,2.13
2023-04-25T17:07:09.408Z,3.22
2023-04-25T17:10:12.652Z,2.30
2023-04-25T17:13:15.936Z,1.88
2023-04-25T17:16:23.291Z,2.23
2023-04-25T17:19:26.476Z,2.60
2023-04-25T17:22:30.365Z,1.95
2023-04-25T17:25:33.888Z,2.40
2023-04-25T17:28:36.876Z,2.35
2023-04-25T17:31:41.481Z,2.03
2023-04-25T17:34:46.130Z,1.75
2023-04-25T17:37:51.295Z,2.40
2023-04-25T17:40:54.575Z,2.35
2023-04-25T17:44:21.485Z,1.63
2023-04-25T17:47:25.030Z,1.65
2023-04-25T17:50:28.518Z,2.33
2023-04-25T17:53:31.891Z,2.20
2023-04-25T17:56:37.449Z,2.50
2023-04-25T17:59:42.193Z,2.22
2023-04-25T18:02:47.501Z,2.15
2023-04-25T18:05:50.630Z,2.20
2023-04-25T18:08:54.044Z,1.75
2023-04-25T18:11:58.276Z,2.00
2023-04-25T18:15:23.135Z,1.65
2023-04-25T18:18:33.124Z,1.98
2023-04-25T18:21:36.378Z,2.25
2023-04-25T18:24:39.365Z,1.98
2023-04-25T18:27:43.350Z,2.47
2023-04-25T18:30:47.805Z,1.90
2023-04-25T18:33:50.966Z,2.42
2023-04-25T18:36:55.570Z,2.47
2023-04-25T18:39:58.636Z,1.58
2023-04-25T18:43:01.837Z,2.40
2023-04-25T18:46:06.278Z,1.60
2023-04-25T18:49:09.295Z,2.92
2023-04-25T18:52:15.461Z,2.15
2023-04-25T18:55:19.001Z,2.25
2023-04-25T18:58:22.680Z,1.95
2023-04-25T19:01:27.231Z,2.25
2023-04-25T19:04:30.499Z,2.22
2023-04-25T19:07:33.635Z,2.13
2023-04-25T19:10:36.676Z,1.63
2023-04-25T19:13:39.742Z,2.10
2023-04-25T19:16:44.308Z,2.05
2023-04-25T19:19:47.677Z,1.70
2023-04-25T19:22:51.656Z,1.80
2023-04-25T19:25:55.071Z,1.83
2023-04-25T19:29:06.521Z,1.77
2023-04-25T19:32:11.548Z,1.95
2023-04-25T19:35:14.604Z,1.65
2023-04-25T19:38:17.569Z,2.22
2023-04-25T19:41:20.657Z,1.90
2023-04-25T19:46:17.945Z,1.73
2023-04-25T19:49:21.388Z,1.88
2023-04-25T19:52:24.445Z,1.63
2023-04-25T19:55:28.175Z,1.92
2023-04-25T19:58:31.438Z,1.52
2023-04-25T20:01:35.995Z,2.10
2023-04-25T20:04:39.666Z,1.95
2023-04-25T20:07:43.353Z,1.95
2023-04-25T20:10:46.411Z,1.27
2023-04-25T20:13:50.082Z,2.00
2023-04-25T20:16:55.354Z,1.08
2023-04-25T20:19:58.485Z,1.52
2023-04-25T20:23:02.118Z,1.60
2023-04-25T20:26:05.199Z,1.85
2023-04-25T20:29:09.710Z,1.95
2023-04-25T20:32:14.462Z,1.75
2023-04-25T20:35:17.814Z,1.63
2023-04-25T20:38:20.902Z,1.75
2023-04-25T20:41:23.904Z,1.55
2023-04-25T20:44:27.100Z,1.48
2023-04-25T20:47:31.452Z,2.05
2023-04-25T20:50:34.900Z,2.00
2023-04-25T20:53:37.921Z,1.73
2023-04-25T20:56:41.400Z,1.75
2023-04-25T20:59:44.672Z,1.33
2023-04-25T21:02:49.300Z,1.27
2023-04-25T21:05:52.411Z,1.10
2023-04-25T21:08:55.900Z,1.80
2023-04-25T21:11:58.878Z,1.47
2023-04-25T21:15:01.870Z,1.65
2023-04-25T21:18:07.271Z,1.55
2023-04-25T21:21:11.135Z,1.98
2023-04-25T21:24:14.552Z,1.73
2023-04-25T21:27:18.462Z,1.57
2023-04-25T21:30:23.949Z,1.58
2023-04-25T21:33:28.381Z,1.75
2023-04-25T21:36:56.410Z,1.85
2023-04-25T21:39:59.495Z,1.60
2023-04-25T21:43:03.666Z,1.80
2023-04-25T21:49:29.258Z,1.15
2023-04-25T21:52:33.870Z,1.67
2023-04-25T21:55:37.284Z,1.88
2023-04-25T21:58:40.279Z,1.93
2023-04-25T22:01:45.486Z,1.98
2023-04-25T22:04:48.661Z,2.10
2023-04-25T22:07:54.860Z,1.20
2023-04-25T22:11:24.154Z,2.08
2023-04-25T22:14:28.286Z,1.67
2023-04-25T22:17:31.654Z,2.10
2023-04-25T22:20:34.934Z,2.20
2023-04-25T22:23:38.376Z,1.70
2023-04-25T22:26:43.196Z,1.53
2023-04-25T22:29:46.611Z,2.13
2023-04-25T22:32:49.796Z,1.57
2023-04-25T22:35:52.989Z,1.02
2023-04-25T22:39:40.214Z,2.78
2023-04-25T22:42:44.448Z,2.08
2023-04-25T22:45:48.965Z,1.30
2023-04-25T22:48:52.466Z,1.27
2023-04-25T22:51:56.792Z,1.90
2023-04-25T22:55:01.531Z,1.73
2023-04-25T22:58:04.843Z,1.67
2023-04-25T23:01:08.247Z,2.20
2023-04-25T23:04:11.448Z,1.50
2023-04-25T23:07:14.805Z,1.73
2023-04-25T23:10:19.792Z,1.63
2023-04-25T23:13:22.890Z,1.83
2023-04-25T23:16:25.882Z,1.52
2023-04-25T23:19:29.649Z,2.05
2023-04-25T23:22:32.885Z,1.85
2023-04-25T23:25:40.730Z,2.03
2023-04-25T23:28:45.088Z,2.65
2023-04-25T23:31:48.056Z,1.77
2023-04-25T23:34:51.135Z,2.00
2023-04-25T23:37:54.199Z,2.30
2023-04-25T23:40:59.079Z,1.40
2023-04-25T23:44:03.443Z,1.75
2023-04-25T23:47:06.750Z,1.75
2023-04-25T23:50:10.690Z,2.20
2023-04-25T23:53:13.678Z,2.00
2023-04-25T23:56:18.222Z,1.08
2023-04-25T23:59:21.244Z,2.25
